Firebaugh, California
Current Conditions -  °F | °C
As of 3:53 PM on Thursday 27 Nov 2014 (Local Time) from KMAE Reporting Station
Clear Clear  
Wind Chill: 71°   Ceiling: Unl
Heat Index: 71°   Visibility: 7mi
Dew Point: 43°   Wind: 0mph
Humidity: 36%   Direction: NA
Pressure: 30.08"   Gusts: NA
Location:  36.86°N, 120.46°W
Report Text: KMAE 272353Z AUTO 00000KT 7SM CLR 22/06 A3008 RMK AO2 SLP183 T02170061 10222 20144 56015
Loading
Personal Weather Stations






























Interactive Weather Map New forecast layout! Learn more

10-Day Weather Forecast

Advertisements
Track Severe Weather on mobile